sensor_id;sensor_type;location;lat;lon;timestamp;P1;durP1;ratioP1;P2;durP2;ratioP2
12114;SDS011;6121;49.810;6.418;2024-03-25T00:00:12;65.35;;;9.32;;
12114;SDS011;6121;49.810;6.418;2024-03-25T00:02:39;80.72;;;11.30;;
12114;SDS011;6121;49.810;6.418;2024-03-25T00:05:06;74.13;;;10.45;;
12114;SDS011;6121;49.810;6.418;2024-03-25T00:07:35;77.75;;;10.98;;
12114;SDS011;6121;49.810;6.418;2024-03-25T00:10:01;67.70;;;9.68;;
12114;SDS011;6121;49.810;6.418;2024-03-25T00:12:27;89.60;;;12.38;;
12114;SDS011;6121;49.810;6.418;2024-03-25T00:14:54;62.28;;;9.20;;
12114;SDS011;6121;49.810;6.418;2024-03-25T00:17:20;70.30;;;10.18;;
12114;SDS011;6121;49.810;6.418;2024-03-25T00:19:46;78.53;;;11.20;;
12114;SDS011;6121;49.810;6.418;2024-03-25T00:22:16;64.10;;;9.38;;
12114;SDS011;6121;49.810;6.418;2024-03-25T00:24:43;86.65;;;12.05;;
12114;SDS011;6121;49.810;6.418;2024-03-25T00:27:09;76.57;;;10.77;;
12114;SDS011;6121;49.810;6.418;2024-03-25T00:29:34;81.15;;;11.40;;
12114;SDS011;6121;49.810;6.418;2024-03-25T00:32:00;69.35;;;10.02;;
12114;SDS011;6121;49.810;6.418;2024-03-25T00:34:26;91.07;;;12.70;;
12114;SDS011;6121;49.810;6.418;2024-03-25T00:36:52;81.82;;;11.57;;
12114;SDS011;6121;49.810;6.418;2024-03-25T00:39:18;70.45;;;10.18;;
12114;SDS011;6121;49.810;6.418;2024-03-25T00:41:44;87.90;;;12.20;;
12114;SDS011;6121;49.810;6.418;2024-03-25T00:44:10;84.40;;;11.85;;
12114;SDS011;6121;49.810;6.418;2024-03-25T00:46:36;86.38;;;11.98;;
12114;SDS011;6121;49.810;6.418;2024-03-25T00:49:02;67.45;;;9.88;;
12114;SDS011;6121;49.810;6.418;2024-03-25T00:51:28;81.20;;;11.38;;
12114;SDS011;6121;49.810;6.418;2024-03-25T00:53:54;91.03;;;12.60;;
12114;SDS011;6121;49.810;6.418;2024-03-25T00:56:20;68.20;;;9.98;;
12114;SDS011;6121;49.810;6.418;2024-03-25T00:58:46;81.20;;;11.38;;
12114;SDS011;6121;49.810;6.418;2024-03-25T01:01:12;62.65;;;9.32;;
12114;SDS011;6121;49.810;6.418;2024-03-25T01:03:39;92.60;;;12.90;;
12114;SDS011;6121;49.810;6.418;2024-03-25T01:06:05;59.00;;;8.97;;
12114;SDS011;6121;49.810;6.418;2024-03-25T01:08:31;88.25;;;12.32;;
12114;SDS011;6121;49.810;6.418;2024-03-25T01:10:56;73.43;;;10.53;;
12114;SDS011;6121;49.810;6.418;2024-03-25T01:13:22;97.43;;;13.57;;
12114;SDS011;6121;49.810;6.418;2024-03-25T01:15:48;103.45;;;14.13;;
12114;SDS011;6121;49.810;6.418;2024-03-25T01:18:14;86.47;;;12.07;;
12114;SDS011;6121;49.810;6.418;2024-03-25T01:20:40;98.47;;;13.57;;
12114;SDS011;6121;49.810;6.418;2024-03-25T01:23:05;92.20;;;13.02;;
12114;SDS011;6121;49.810;6.418;2024-03-25T01:25:31;94.83;;;13.17;;
12114;SDS011;6121;49.810;6.418;2024-03-25T01:27:57;113.38;;;15.43;;
12114;SDS011;6121;49.810;6.418;2024-03-25T01:30:23;88.38;;;12.63;;
12114;SDS011;6121;49.810;6.418;2024-03-25T01:32:49;98.70;;;13.75;;
12114;SDS011;6121;49.810;6.418;2024-03-25T01:35:15;89.05;;;12.57;;
12114;SDS011;6121;49.810;6.418;2024-03-25T01:37:41;86.13;;;12.27;;
12114;SDS011;6121;49.810;6.418;2024-03-25T01:40:07;82.15;;;11.65;;
12114;SDS011;6121;49.810;6.418;2024-03-25T01:42:36;111.70;;;15.40;;
12114;SDS011;6121;49.810;6.418;2024-03-25T01:45:02;96.35;;;13.50;;
12114;SDS011;6121;49.810;6.418;2024-03-25T01:47:29;89.60;;;12.67;;
12114;SDS011;6121;49.810;6.418;2024-03-25T01:49:58;102.47;;;14.02;;
12114;SDS011;6121;49.810;6.418;2024-03-25T01:52:25;92.63;;;13.02;;
12114;SDS011;6121;49.810;6.418;2024-03-25T01:54:53;90.80;;;12.73;;
12114;SDS011;6121;49.810;6.418;2024-03-25T01:57:19;94.95;;;13.32;;
12114;SDS011;6121;49.810;6.418;2024-03-25T01:59:46;93.97;;;13.15;;
12114;SDS011;6121;49.810;6.418;2024-03-25T02:02:12;77.20;;;11.18;;
12114;SDS011;6121;49.810;6.418;2024-03-25T02:04:39;82.85;;;12.00;;
12114;SDS011;6121;49.810;6.418;2024-03-25T02:07:07;94.93;;;13.30;;
12114;SDS011;6121;49.810;6.418;2024-03-25T02:09:34;85.65;;;12.13;;
12114;SDS011;6121;49.810;6.418;2024-03-25T02:12:01;99.25;;;13.85;;
12114;SDS011;6121;49.810;6.418;2024-03-25T02:14:27;92.82;;;12.88;;
12114;SDS011;6121;49.810;6.418;2024-03-25T02:16:53;95.80;;;13.30;;
12114;SDS011;6121;49.810;6.418;2024-03-25T02:19:19;86.30;;;12.23;;
12114;SDS011;6121;49.810;6.418;2024-03-25T02:21:48;93.75;;;12.98;;
12114;SDS011;6121;49.810;6.418;2024-03-25T02:24:14;98.60;;;13.57;;
12114;SDS011;6121;49.810;6.418;2024-03-25T02:26:44;92.07;;;12.90;;
12114;SDS011;6121;49.810;6.418;2024-03-25T02:29:10;92.00;;;12.75;;
12114;SDS011;6121;49.810;6.418;2024-03-25T02:31:36;92.75;;;12.95;;
12114;SDS011;6121;49.810;6.418;2024-03-25T02:34:02;113.82;;;15.40;;
12114;SDS011;6121;49.810;6.418;2024-03-25T02:36:28;87.35;;;12.23;;
12114;SDS011;6121;49.810;6.418;2024-03-25T02:38:54;104.23;;;14.17;;
12114;SDS011;6121;49.810;6.418;2024-03-25T02:41:20;93.53;;;13.05;;
12114;SDS011;6121;49.810;6.418;2024-03-25T02:43:47;87.15;;;12.20;;
12114;SDS011;6121;49.810;6.418;2024-03-25T02:46:14;87.88;;;12.40;;
12114;SDS011;6121;49.810;6.418;2024-03-25T02:48:40;100.80;;;13.97;;
12114;SDS011;6121;49.810;6.418;2024-03-25T02:51:05;101.85;;;13.88;;
12114;SDS011;6121;49.810;6.418;2024-03-25T02:53:31;106.23;;;14.57;;
12114;SDS011;6121;49.810;6.418;2024-03-25T02:55:57;104.35;;;14.27;;
12114;SDS011;6121;49.810;6.418;2024-03-25T02:58:23;100.38;;;13.85;;
12114;SDS011;6121;49.810;6.418;2024-03-25T03:00:49;96.80;;;13.30;;
12114;SDS011;6121;49.810;6.418;2024-03-25T03:03:14;90.63;;;12.77;;
12114;SDS011;6121;49.810;6.418;2024-03-25T03:05:40;95.43;;;13.07;;
12114;SDS011;6121;49.810;6.418;2024-03-25T03:08:06;104.55;;;14.10;;
12114;SDS011;6121;49.810;6.418;2024-03-25T03:10:32;91.43;;;12.73;;
12114;SDS011;6121;49.810;6.418;2024-03-25T03:12:58;101.72;;;13.75;;
12114;SDS011;6121;49.810;6.418;2024-03-25T03:15:24;94.30;;;12.93;;
12114;SDS011;6121;49.810;6.418;2024-03-25T03:17:50;84.72;;;11.70;;
12114;SDS011;6121;49.810;6.418;2024-03-25T03:20:16;69.43;;;9.88;;
12114;SDS011;6121;49.810;6.418;2024-03-25T03:22:41;87.22;;;12.05;;
12114;SDS011;6121;49.810;6.418;2024-03-25T03:25:07;87.80;;;11.98;;
12114;SDS011;6121;49.810;6.418;2024-03-25T03:27:33;85.17;;;12.00;;
12114;SDS011;6121;49.810;6.418;2024-03-25T03:29:59;82.13;;;11.70;;
12114;SDS011;6121;49.810;6.418;2024-03-25T03:32:25;73.77;;;10.53;;
12114;SDS011;6121;49.810;6.418;2024-03-25T03:34:51;86.35;;;11.98;;
12114;SDS011;6121;49.810;6.418;2024-03-25T03:37:16;72.75;;;10.38;;
12114;SDS011;6121;49.810;6.418;2024-03-25T03:39:42;81.63;;;11.37;;
12114;SDS011;6121;49.810;6.418;2024-03-25T03:42:08;80.35;;;11.15;;
12114;SDS011;6121;49.810;6.418;2024-03-25T03:44:34;78.00;;;10.93;;
12114;SDS011;6121;49.810;6.418;2024-03-25T03:47:00;89.00;;;12.55;;
12114;SDS011;6121;49.810;6.418;2024-03-25T03:49:26;69.55;;;10.10;;
12114;SDS011;6121;49.810;6.418;2024-03-25T03:51:52;84.28;;;11.75;;
12114;SDS011;6121;49.810;6.418;2024-03-25T03:54:18;76.63;;;10.82;;
12114;SDS011;6121;49.810;6.418;2024-03-25T03:56:44;79.88;;;11.15;;
12114;SDS011;6121;49.810;6.418;2024-03-25T03:59:09;85.77;;;12.03;;
12114;SDS011;6121;49.810;6.418;2024-03-25T04:01:35;71.38;;;10.15;;
12114;SDS011;6121;49.810;6.418;2024-03-25T04:04:01;94.53;;;13.10;;
12114;SDS011;6121;49.810;6.418;2024-03-25T04:06:27;64.65;;;9.52;;
12114;SDS011;6121;49.810;6.418;2024-03-25T04:08:53;89.43;;;12.47;;
12114;SDS011;6121;49.810;6.418;2024-03-25T04:11:18;69.43;;;10.07;;
12114;SDS011;6121;49.810;6.418;2024-03-25T04:13:46;79.80;;;11.25;;
12114;SDS011;6121;49.810;6.418;2024-03-25T04:16:12;107.60;;;14.50;;
12114;SDS011;6121;49.810;6.418;2024-03-25T04:18:38;87.88;;;12.18;;
12114;SDS011;6121;49.810;6.418;2024-03-25T04:21:11;98.22;;;13.65;;
12114;SDS011;6121;49.810;6.418;2024-03-25T04:23:37;94.03;;;13.00;;
12114;SDS011;6121;49.810;6.418;2024-03-25T04:26:03;97.53;;;13.43;;
12114;SDS011;6121;49.810;6.418;2024-03-25T04:28:31;85.22;;;11.68;;
12114;SDS011;6121;49.810;6.418;2024-03-25T04:30:57;107.10;;;14.40;;
12114;SDS011;6121;49.810;6.418;2024-03-25T04:33:23;96.27;;;13.20;;
12114;SDS011;6121;49.810;6.418;2024-03-25T04:35:48;91.53;;;12.75;;
12114;SDS011;6121;49.810;6.418;2024-03-25T04:38:16;101.60;;;13.83;;
12114;SDS011;6121;49.810;6.418;2024-03-25T04:40:42;85.53;;;11.87;;
12114;SDS011;6121;49.810;6.418;2024-03-25T04:43:09;114.43;;;15.43;;
12114;SDS011;6121;49.810;6.418;2024-03-25T04:45:35;94.57;;;13.43;;
12114;SDS011;6121;49.810;6.418;2024-03-25T04:48:01;109.82;;;14.85;;
12114;SDS011;6121;49.810;6.418;2024-03-25T04:50:27;92.07;;;12.83;;
12114;SDS011;6121;49.810;6.418;2024-03-25T04:52:53;96.80;;;13.23;;
12114;SDS011;6121;49.810;6.418;2024-03-25T04:55:19;93.57;;;13.00;;
12114;SDS011;6121;49.810;6.418;2024-03-25T04:57:46;106.47;;;14.43;;
12114;SDS011;6121;49.810;6.418;2024-03-25T05:00:12;101.65;;;13.95;;
12114;SDS011;6121;49.810;6.418;2024-03-25T05:02:38;86.85;;;12.15;;
12114;SDS011;6121;49.810;6.418;2024-03-25T05:05:04;104.55;;;13.95;;
12114;SDS011;6121;49.810;6.418;2024-03-25T05:07:32;85.57;;;11.95;;
12114;SDS011;6121;49.810;6.418;2024-03-25T05:09:58;100.72;;;13.52;;
12114;SDS011;6121;49.810;6.418;2024-03-25T05:12:24;91.10;;;12.77;;
12114;SDS011;6121;49.810;6.418;2024-03-25T05:14:55;90.20;;;12.87;;
12114;SDS011;6121;49.810;6.418;2024-03-25T05:17:21;94.25;;;13.25;;
12114;SDS011;6121;49.810;6.418;2024-03-25T05:19:47;83.57;;;11.88;;
12114;SDS011;6121;49.810;6.418;2024-03-25T05:22:13;88.53;;;12.65;;
12114;SDS011;6121;49.810;6.418;2024-03-25T05:24:39;84.20;;;12.20;;
12114;SDS011;6121;49.810;6.418;2024-03-25T05:27:05;114.63;;;15.73;;
12114;SDS011;6121;49.810;6.418;2024-03-25T05:29:31;88.73;;;12.47;;
12114;SDS011;6121;49.810;6.418;2024-03-25T05:31:58;170.43;;;22.13;;
12114;SDS011;6121;49.810;6.418;2024-03-25T05:34:25;139.18;;;18.70;;
12114;SDS011;6121;49.810;6.418;2024-03-25T05:36:52;107.70;;;15.03;;
12114;SDS011;6121;49.810;6.418;2024-03-25T05:39:18;119.00;;;16.17;;
12114;SDS011;6121;49.810;6.418;2024-03-25T05:41:45;123.30;;;16.92;;
12114;SDS011;6121;49.810;6.418;2024-03-25T05:44:11;135.88;;;18.23;;
12114;SDS011;6121;49.810;6.418;2024-03-25T05:46:38;97.57;;;14.23;;
12114;SDS011;6121;49.810;6.418;2024-03-25T05:49:04;132.80;;;18.15;;
12114;SDS011;6121;49.810;6.418;2024-03-25T05:51:30;125.05;;;17.23;;
12114;SDS011;6121;49.810;6.418;2024-03-25T05:53:59;122.30;;;16.88;;
12114;SDS011;6121;49.810;6.418;2024-03-25T05:56:25;125.90;;;17.27;;
12114;SDS011;6121;49.810;6.418;2024-03-25T05:58:58;114.47;;;15.95;;
12114;SDS011;6121;49.810;6.418;2024-03-25T06:01:25;133.23;;;18.30;;
12114;SDS011;6121;49.810;6.418;2024-03-25T06:03:52;102.00;;;14.55;;
12114;SDS011;6121;49.810;6.418;2024-03-25T06:06:19;132.30;;;17.70;;
12114;SDS011;6121;49.810;6.418;2024-03-25T06:08:45;89.03;;;12.97;;
12114;SDS011;6121;49.810;6.418;2024-03-25T06:11:11;112.90;;;15.43;;
12114;SDS011;6121;49.810;6.418;2024-03-25T06:13:37;98.22;;;13.70;;
12114;SDS011;6121;49.810;6.418;2024-03-25T06:16:03;150.52;;;19.83;;
12114;SDS011;6121;49.810;6.418;2024-03-25T06:18:29;109.32;;;14.90;;
12114;SDS011;6121;49.810;6.418;2024-03-25T06:20:55;87.78;;;12.45;;
12114;SDS011;6121;49.810;6.418;2024-03-25T06:23:27;150.40;;;19.57;;
12114;SDS011;6121;49.810;6.418;2024-03-25T06:25:55;113.97;;;15.50;;
12114;SDS011;6121;49.810;6.418;2024-03-25T06:28:21;123.03;;;16.50;;
12114;SDS011;6121;49.810;6.418;2024-03-25T06:30:48;125.43;;;16.83;;
12114;SDS011;6121;49.810;6.418;2024-03-25T06:33:33;112.18;;;15.55;;
12114;SDS011;6121;49.810;6.418;2024-03-25T06:36:17;128.32;;;17.33;;
12114;SDS011;6121;49.810;6.418;2024-03-25T06:38:44;93.25;;;13.07;;
12114;SDS011;6121;49.810;6.418;2024-03-25T06:41:10;129.75;;;17.23;;
12114;SDS011;6121;49.810;6.418;2024-03-25T06:43:37;122.80;;;16.67;;
12114;SDS011;6121;49.810;6.418;2024-03-25T06:46:03;146.23;;;19.45;;
12114;SDS011;6121;49.810;6.418;2024-03-25T06:48:29;107.10;;;14.77;;
12114;SDS011;6121;49.810;6.418;2024-03-25T06:50:57;118.45;;;16.20;;
12114;SDS011;6121;49.810;6.418;2024-03-25T06:53:23;145.05;;;19.25;;
12114;SDS011;6121;49.810;6.418;2024-03-25T06:55:53;114.15;;;15.45;;
12114;SDS011;6121;49.810;6.418;2024-03-25T06:58:23;149.88;;;19.58;;
12114;SDS011;6121;49.810;6.418;2024-03-25T07:00:50;119.20;;;16.27;;
12114;SDS011;6121;49.810;6.418;2024-03-25T07:03:17;140.13;;;18.35;;
12114;SDS011;6121;49.810;6.418;2024-03-25T07:05:46;101.60;;;14.13;;
12114;SDS011;6121;49.810;6.418;2024-03-25T07:08:14;139.27;;;18.50;;
12114;SDS011;6121;49.810;6.418;2024-03-25T07:10:43;112.57;;;15.48;;
12114;SDS011;6121;49.810;6.418;2024-03-25T07:13:09;159.68;;;20.88;;
12114;SDS011;6121;49.810;6.418;2024-03-25T07:15:36;123.78;;;16.65;;
12114;SDS011;6121;49.810;6.418;2024-03-25T07:18:02;117.43;;;15.93;;
12114;SDS011;6121;49.810;6.418;2024-03-25T07:20:28;123.90;;;16.80;;
12114;SDS011;6121;49.810;6.418;2024-03-25T07:22:55;101.07;;;14.20;;
12114;SDS011;6121;49.810;6.418;2024-03-25T07:25:21;113.40;;;15.67;;
12114;SDS011;6121;49.810;6.418;2024-03-25T07:27:48;111.05;;;15.52;;
12114;SDS011;6121;49.810;6.418;2024-03-25T07:30:14;118.63;;;16.20;;
12114;SDS011;6121;49.810;6.418;2024-03-25T07:32:40;128.52;;;17.55;;
12114;SDS011;6121;49.810;6.418;2024-03-25T07:35:06;116.30;;;16.05;;
12114;SDS011;6121;49.810;6.418;2024-03-25T07:37:34;114.30;;;15.77;;
12114;SDS011;6121;49.810;6.418;2024-03-25T07:39:59;122.13;;;16.95;;
12114;SDS011;6121;49.810;6.418;2024-03-25T07:42:25;139.93;;;18.83;;
12114;SDS011;6121;49.810;6.418;2024-03-25T07:44:51;96.65;;;13.65;;
12114;SDS011;6121;49.810;6.418;2024-03-25T07:47:18;125.65;;;17.25;;
12114;SDS011;6121;49.810;6.418;2024-03-25T07:49:44;93.97;;;13.40;;
12114;SDS011;6121;49.810;6.418;2024-03-25T07:52:10;135.40;;;18.08;;
12114;SDS011;6121;49.810;6.418;2024-03-25T07:54:36;110.03;;;15.40;;
12114;SDS011;6121;49.810;6.418;2024-03-25T07:57:04;102.80;;;14.43;;
12114;SDS011;6121;49.810;6.418;2024-03-25T07:59:30;106.40;;;14.95;;
12114;SDS011;6121;49.810;6.418;2024-03-25T08:01:56;123.25;;;17.30;;
12114;SDS011;6121;49.810;6.418;2024-03-25T08:04:22;136.93;;;18.93;;
12114;SDS011;6121;49.810;6.418;2024-03-25T08:06:48;101.65;;;14.52;;
12114;SDS011;6121;49.810;6.418;2024-03-25T08:09:14;108.13;;;15.30;;
12114;SDS011;6121;49.810;6.418;2024-03-25T08:11:41;277.27;;;35.03;;
12114;SDS011;6121;49.810;6.418;2024-03-25T08:14:10;171.43;;;23.17;;
12114;SDS011;6121;49.810;6.418;2024-03-25T08:16:35;170.83;;;22.57;;
12114;SDS011;6121;49.810;6.418;2024-03-25T08:19:02;148.57;;;20.23;;
12114;SDS011;6121;49.810;6.418;2024-03-25T08:21:28;222.27;;;28.58;;
12114;SDS011;6121;49.810;6.418;2024-03-25T08:23:54;166.82;;;21.75;;
12114;SDS011;6121;49.810;6.418;2024-03-25T08:26:19;171.10;;;22.17;;
12114;SDS011;6121;49.810;6.418;2024-03-25T08:28:45;152.02;;;19.88;;
12114;SDS011;6121;49.810;6.418;2024-03-25T08:31:14;165.25;;;21.30;;
12114;SDS011;6121;49.810;6.418;2024-03-25T08:33:40;182.55;;;23.48;;
12114;SDS011;6121;49.810;6.418;2024-03-25T08:36:06;155.93;;;20.23;;
12114;SDS011;6121;49.810;6.418;2024-03-25T08:38:33;165.43;;;21.33;;
12114;SDS011;6121;49.810;6.418;2024-03-25T08:40:59;158.00;;;20.52;;
12114;SDS011;6121;49.810;6.418;2024-03-25T08:43:25;198.60;;;25.42;;
12114;SDS011;6121;49.810;6.418;2024-03-25T08:45:51;184.70;;;23.83;;
12114;SDS011;6121;49.810;6.418;2024-03-25T08:48:16;163.68;;;21.45;;
12114;SDS011;6121;49.810;6.418;2024-03-25T08:50:42;145.30;;;19.27;;
12114;SDS011;6121;49.810;6.418;2024-03-25T08:53:10;162.43;;;21.25;;
12114;SDS011;6121;49.810;6.418;2024-03-25T08:55:35;173.68;;;22.63;;
12114;SDS011;6121;49.810;6.418;2024-03-25T08:58:01;154.03;;;20.30;;
12114;SDS011;6121;49.810;6.418;2024-03-25T09:00:28;167.00;;;21.80;;
12114;SDS011;6121;49.810;6.418;2024-03-25T09:02:54;180.10;;;23.27;;
12114;SDS011;6121;49.810;6.418;2024-03-25T09:05:20;162.02;;;20.92;;
12114;SDS011;6121;49.810;6.418;2024-03-25T09:07:50;200.55;;;25.42;;
12114;SDS011;6121;49.810;6.418;2024-03-25T09:10:20;178.45;;;22.85;;
12114;SDS011;6121;49.810;6.418;2024-03-25T09:13:05;179.43;;;22.95;;
12114;SDS011;6121;49.810;6.418;2024-03-25T09:15:30;166.40;;;21.43;;
12114;SDS011;6121;49.810;6.418;2024-03-25T09:17:57;151.63;;;19.88;;
12114;SDS011;6121;49.810;6.418;2024-03-25T09:20:24;231.32;;;29.42;;
12114;SDS011;6121;49.810;6.418;2024-03-25T09:22:51;171.73;;;22.30;;
12114;SDS011;6121;49.810;6.418;2024-03-25T09:25:17;153.00;;;20.00;;
12114;SDS011;6121;49.810;6.418;2024-03-25T09:27:47;209.53;;;26.77;;
12114;SDS011;6121;49.810;6.418;2024-03-25T09:30:14;184.10;;;23.88;;
12114;SDS011;6121;49.810;6.418;2024-03-25T09:32:40;189.77;;;24.42;;
12114;SDS011;6121;49.810;6.418;2024-03-25T09:35:09;155.60;;;20.17;;
12114;SDS011;6121;49.810;6.418;2024-03-25T09:37:35;192.50;;;24.80;;
12114;SDS011;6121;49.810;6.418;2024-03-25T09:40:02;160.43;;;20.95;;
12114;SDS011;6121;49.810;6.418;2024-03-25T09:42:42;249.80;;;31.77;;
12114;SDS011;6121;49.810;6.418;2024-03-25T09:45:15;170.13;;;22.20;;
12114;SDS011;6121;49.810;6.418;2024-03-25T09:47:45;176.53;;;23.00;;
12114;SDS011;6121;49.810;6.418;2024-03-25T09:50:13;163.35;;;21.23;;
12114;SDS011;6121;49.810;6.418;2024-03-25T09:52:44;206.20;;;26.43;;
12114;SDS011;6121;49.810;6.418;2024-03-25T09:55:15;150.73;;;19.83;;
12114;SDS011;6121;49.810;6.418;2024-03-25T09:57:42;194.73;;;25.15;;
12114;SDS011;6121;49.810;6.418;2024-03-25T10:00:09;167.73;;;22.02;;
12114;SDS011;6121;49.810;6.418;2024-03-25T10:02:39;227.80;;;28.63;;
12114;SDS011;6121;49.810;6.418;2024-03-25T10:05:06;163.70;;;20.77;;
12114;SDS011;6121;49.810;6.418;2024-03-25T10:07:33;218.48;;;27.35;;
12114;SDS011;6121;49.810;6.418;2024-03-25T10:09:59;167.18;;;21.23;;
12114;SDS011;6121;49.810;6.418;2024-03-25T10:12:32;251.23;;;31.02;;
12114;SDS011;6121;49.810;6.418;2024-03-25T10:14:58;159.43;;;20.17;;
12114;SDS011;6121;49.810;6.418;2024-03-25T10:17:24;170.73;;;21.58;;
12114;SDS011;6121;49.810;6.418;2024-03-25T10:19:50;178.23;;;22.63;;
12114;SDS011;6121;49.810;6.418;2024-03-25T10:22:18;226.00;;;28.23;;
12114;SDS011;6121;49.810;6.418;2024-03-25T10:24:45;165.40;;;21.13;;
12114;SDS011;6121;49.810;6.418;2024-03-25T10:27:17;183.88;;;23.55;;
12114;SDS011;6121;49.810;6.418;2024-03-25T10:29:47;180.00;;;23.25;;
12114;SDS011;6121;49.810;6.418;2024-03-25T10:32:14;258.05;;;32.78;;
12114;SDS011;6121;49.810;6.418;2024-03-25T10:34:40;190.55;;;24.70;;
12114;SDS011;6121;49.810;6.418;2024-03-25T10:37:08;192.18;;;24.70;;
12114;SDS011;6121;49.810;6.418;2024-03-25T10:39:37;227.60;;;28.73;;
12114;SDS011;6121;49.810;6.418;2024-03-25T10:42:08;269.35;;;33.60;;
12114;SDS011;6121;49.810;6.418;2024-03-25T10:44:40;204.30;;;25.90;;
12114;SDS011;6121;49.810;6.418;2024-03-25T10:47:06;188.45;;;24.05;;
12114;SDS011;6121;49.810;6.418;2024-03-25T10:49:40;194.53;;;24.67;;
12114;SDS011;6121;49.810;6.418;2024-03-25T10:52:13;261.00;;;32.88;;
12114;SDS011;6121;49.810;6.418;2024-03-25T10:54:41;186.30;;;23.90;;
12114;SDS011;6121;49.810;6.418;2024-03-25T10:57:09;186.82;;;24.00;;
12114;SDS011;6121;49.810;6.418;2024-03-25T10:59:36;205.40;;;26.08;;
12114;SDS011;6121;49.810;6.418;2024-03-25T11:02:07;261.60;;;32.38;;
12114;SDS011;6121;49.810;6.418;2024-03-25T11:04:33;181.63;;;23.23;;
12114;SDS011;6121;49.810;6.418;2024-03-25T11:07:07;163.18;;;21.02;;
12114;SDS011;6121;49.810;6.418;2024-03-25T11:09:33;193.18;;;24.52;;
12114;SDS011;6121;49.810;6.418;2024-03-25T11:11:59;268.10;;;33.38;;
12114;SDS011;6121;49.810;6.418;2024-03-25T11:14:27;168.20;;;21.50;;
12114;SDS011;6121;49.810;6.418;2024-03-25T11:16:53;206.70;;;26.17;;
12114;SDS011;6121;49.810;6.418;2024-03-25T11:19:20;162.03;;;20.97;;
12114;SDS011;6121;49.810;6.418;2024-03-25T11:21:53;294.08;;;36.53;;
12114;SDS011;6121;49.810;6.418;2024-03-25T11:24:29;188.15;;;24.00;;
12114;SDS011;6121;49.810;6.418;2024-03-25T11:26:55;186.10;;;23.77;;
12114;SDS011;6121;49.810;6.418;2024-03-25T11:29:21;165.80;;;21.40;;
12114;SDS011;6121;49.810;6.418;2024-03-25T11:31:51;291.10;;;36.10;;
12114;SDS011;6121;49.810;6.418;2024-03-25T11:34:18;175.87;;;22.57;;
12114;SDS011;6121;49.810;6.418;2024-03-25T11:36:45;207.50;;;26.52;;
12114;SDS011;6121;49.810;6.418;2024-03-25T11:39:14;190.65;;;24.45;;
12114;SDS011;6121;49.810;6.418;2024-03-25T11:41:44;293.07;;;36.87;;
12114;SDS011;6121;49.810;6.418;2024-03-25T11:44:11;188.82;;;24.35;;
12114;SDS011;6121;49.810;6.418;2024-03-25T11:46:40;197.88;;;25.15;;
12114;SDS011;6121;49.810;6.418;2024-03-25T11:49:06;163.82;;;21.23;;
12114;SDS011;6121;49.810;6.418;2024-03-25T11:51:35;297.23;;;36.88;;
12114;SDS011;6121;49.810;6.418;2024-03-25T11:54:05;182.05;;;23.23;;
12114;SDS011;6121;49.810;6.418;2024-03-25T11:56:31;200.93;;;25.40;;
12114;SDS011;6121;49.810;6.418;2024-03-25T11:58:59;188.95;;;23.95;;
12114;SDS011;6121;49.810;6.418;2024-03-25T12:01:25;213.27;;;26.95;;
12114;SDS011;6121;49.810;6.418;2024-03-25T12:03:52;219.18;;;27.65;;
12114;SDS011;6121;49.810;6.418;2024-03-25T12:06:18;183.65;;;23.63;;
12114;SDS011;6121;49.810;6.418;2024-03-25T12:08:43;175.40;;;22.55;;
12114;SDS011;6121;49.810;6.418;2024-03-25T12:11:29;241.32;;;30.35;;
12114;SDS011;6121;49.810;6.418;2024-03-25T12:13:55;203.70;;;26.20;;
12114;SDS011;6121;49.810;6.418;2024-03-25T12:16:22;176.53;;;22.80;;
12114;SDS011;6121;49.810;6.418;2024-03-25T12:18:49;191.02;;;24.40;;
12114;SDS011;6121;49.810;6.418;2024-03-25T12:21:15;174.40;;;22.67;;
12114;SDS011;6121;49.810;6.418;2024-03-25T12:23:41;192.02;;;24.55;;
12114;SDS011;6121;49.810;6.418;2024-03-25T12:26:08;169.15;;;22.10;;
12114;SDS011;6121;49.810;6.418;2024-03-25T12:28:34;192.77;;;24.92;;
12114;SDS011;6121;49.810;6.418;2024-03-25T12:31:06;185.00;;;23.85;;
12114;SDS011;6121;49.810;6.418;2024-03-25T12:33:42;209.90;;;26.73;;
12114;SDS011;6121;49.810;6.418;2024-03-25T12:36:11;163.30;;;21.20;;
12114;SDS011;6121;49.810;6.418;2024-03-25T12:38:37;163.32;;;21.25;;
12114;SDS011;6121;49.810;6.418;2024-03-25T12:41:04;165.45;;;21.50;;
12114;SDS011;6121;49.810;6.418;2024-03-25T12:43:32;225.45;;;28.52;;
12114;SDS011;6121;49.810;6.418;2024-03-25T12:45:59;213.60;;;27.08;;
12114;SDS011;6121;49.810;6.418;2024-03-25T12:48:25;155.88;;;20.13;;
12114;SDS011;6121;49.810;6.418;2024-03-25T12:50:52;186.90;;;24.20;;
12114;SDS011;6121;49.810;6.418;2024-03-25T12:53:19;174.75;;;22.70;;
12114;SDS011;6121;49.810;6.418;2024-03-25T12:55:45;191.73;;;24.63;;
12114;SDS011;6121;49.810;6.418;2024-03-25T12:58:12;174.48;;;22.63;;
12114;SDS011;6121;49.810;6.418;2024-03-25T13:00:38;175.00;;;22.75;;
12114;SDS011;6121;49.810;6.418;2024-03-25T13:03:06;191.13;;;24.65;;
12114;SDS011;6121;49.810;6.418;2024-03-25T13:05:33;174.40;;;22.75;;
12114;SDS011;6121;49.810;6.418;2024-03-25T13:08:00;189.63;;;24.10;;
12114;SDS011;6121;49.810;6.418;2024-03-25T13:10:26;181.30;;;23.20;;
12114;SDS011;6121;49.810;6.418;2024-03-25T13:12:53;276.97;;;34.33;;
12114;SDS011;6121;49.810;6.418;2024-03-25T13:15:18;183.30;;;23.47;;
12114;SDS011;6121;49.810;6.418;2024-03-25T13:17:44;201.03;;;25.33;;
12114;SDS011;6121;49.810;6.418;2024-03-25T13:20:10;192.82;;;24.60;;
12114;SDS011;6121;49.810;6.418;2024-03-25T13:22:36;250.20;;;31.40;;
12114;SDS011;6121;49.810;6.418;2024-03-25T13:25:03;203.35;;;25.92;;
12114;SDS011;6121;49.810;6.418;2024-03-25T13:27:30;185.13;;;23.70;;
12114;SDS011;6121;49.810;6.418;2024-03-25T13:29:56;175.60;;;22.38;;
12114;SDS011;6121;49.810;6.418;2024-03-25T13:32:22;283.13;;;35.33;;
12114;SDS011;6121;49.810;6.418;2024-03-25T13:34:49;180.93;;;23.15;;
12114;SDS011;6121;49.810;6.418;2024-03-25T13:37:15;179.23;;;22.90;;
12114;SDS011;6121;49.810;6.418;2024-03-25T13:39:41;194.33;;;24.73;;
12114;SDS011;6121;49.810;6.418;2024-03-25T13:42:07;300.83;;;36.70;;
12114;SDS011;6121;49.810;6.418;2024-03-25T13:44:33;193.53;;;24.27;;
12114;SDS011;6121;49.810;6.418;2024-03-25T13:46:59;209.93;;;26.60;;
12114;SDS011;6121;49.810;6.418;2024-03-25T13:49:25;165.23;;;21.13;;
12114;SDS011;6121;49.810;6.418;2024-03-25T13:51:51;287.87;;;35.63;;
12114;SDS011;6121;49.810;6.418;2024-03-25T13:54:22;217.80;;;27.25;;
12114;SDS011;6121;49.810;6.418;2024-03-25T13:56:47;183.13;;;23.23;;
12114;SDS011;6121;49.810;6.418;2024-03-25T13:59:14;199.33;;;24.90;;
12114;SDS011;6121;49.810;6.418;2024-03-25T14:01:40;259.85;;;32.10;;
12114;SDS011;6121;49.810;6.418;2024-03-25T14:04:06;214.20;;;26.73;;
12114;SDS011;6121;49.810;6.418;2024-03-25T14:06:32;179.50;;;22.77;;
12114;SDS011;6121;49.810;6.418;2024-03-25T14:09:01;178.15;;;22.52;;
12114;SDS011;6121;49.810;6.418;2024-03-25T14:11:30;207.25;;;26.02;;
12114;SDS011;6121;49.810;6.418;2024-03-25T14:13:56;225.80;;;28.15;;
12114;SDS011;6121;49.810;6.418;2024-03-25T14:16:22;185.57;;;23.52;;
12114;SDS011;6121;49.810;6.418;2024-03-25T14:18:47;159.82;;;20.55;;
12114;SDS011;6121;49.810;6.418;2024-03-25T14:21:13;177.88;;;22.52;;
12114;SDS011;6121;49.810;6.418;2024-03-25T14:23:39;199.15;;;24.95;;